createdAt,value
2017-12-11T00:00:32.806Z,0
2017-12-11T00:01:33.503Z,0
2017-12-11T00:02:34.162Z,0
2017-12-11T00:03:34.822Z,0
2017-12-11T00:04:35.483Z,0
2017-12-11T00:05:36.143Z,0
2017-12-11T00:06:36.802Z,0
2017-12-11T00:07:37.513Z,0
2017-12-11T00:08:38.172Z,0
2017-12-11T00:09:38.837Z,0
2017-12-11T00:10:39.498Z,0
2017-12-11T00:11:40.193Z,0
2017-12-11T00:12:40.853Z,0
2017-12-11T00:13:41.514Z,0
2017-12-11T00:14:42.176Z,0
2017-12-11T00:15:42.836Z,0
2017-12-11T00:16:43.496Z,0
2017-12-11T00:17:44.157Z,0
2017-12-11T00:18:44.816Z,0
2017-12-11T00:19:45.478Z,0
2017-12-11T00:20:46.137Z,0
2017-12-11T00:21:46.798Z,0
2017-12-11T00:22:47.457Z,0
2017-12-11T00:23:48.127Z,0
2017-12-11T00:24:48.778Z,0
2017-12-11T00:25:49.439Z,0
2017-12-11T00:26:50.099Z,0
2017-12-11T00:27:50.759Z,0
2017-12-11T00:28:51.417Z,0
2017-12-11T00:29:52.112Z,0
2017-12-11T00:30:52.771Z,0
2017-12-11T00:31:53.428Z,0
2017-12-11T00:32:54.088Z,0
2017-12-11T00:33:54.749Z,0
2017-12-11T00:34:55.406Z,0
2017-12-11T00:35:56.065Z,0
2017-12-11T00:36:56.725Z,0
2017-12-11T00:37:57.385Z,0
2017-12-11T00:38:58.043Z,0
2017-12-11T00:39:58.702Z,0
2017-12-11T00:40:59.360Z,0
2017-12-11T00:42:00.021Z,0
2017-12-11T00:43:00.687Z,0
2017-12-11T00:44:01.340Z,0
2017-12-11T00:45:02.004Z,0
2017-12-11T00:46:02.659Z,0
2017-12-11T00:47:03.318Z,0
2017-12-11T00:48:03.978Z,0
2017-12-11T00:49:04.639Z,0
2017-12-11T00:50:05.298Z,0
2017-12-11T00:51:05.957Z,0
2017-12-11T00:52:06.618Z,0
2017-12-11T00:53:07.276Z,0
2017-12-11T00:54:07.936Z,0
2017-12-11T00:55:08.593Z,0
2017-12-11T00:56:09.252Z,0
2017-12-11T00:57:09.911Z,0
2017-12-11T00:58:10.571Z,0
2017-12-11T00:59:11.230Z,0
2017-12-11T01:00:11.889Z,0
2017-12-11T01:01:12.549Z,0
2017-12-11T01:02:13.207Z,0
2017-12-11T01:03:13.869Z,0
2017-12-11T01:04:14.535Z,0
2017-12-11T01:05:15.189Z,0
2017-12-11T01:06:15.848Z,0
2017-12-11T01:07:16.508Z,0
2017-12-11T01:08:17.168Z,0
2017-12-11T01:09:17.826Z,0
2017-12-11T01:10:18.486Z,0
2017-12-11T01:11:19.146Z,0
2017-12-11T01:12:19.806Z,0
2017-12-11T01:13:20.466Z,0
2017-12-11T01:14:21.126Z,0
2017-12-11T01:15:21.785Z,0
2017-12-11T01:16:22.445Z,0
2017-12-11T01:17:23.104Z,0
2017-12-11T01:18:23.764Z,0
2017-12-11T01:19:24.424Z,0
2017-12-11T01:20:25.084Z,0
2017-12-11T01:21:25.744Z,0
2017-12-11T01:22:26.440Z,0
2017-12-11T01:23:27.100Z,0
2017-12-11T01:24:27.762Z,0
2017-12-11T01:25:28.458Z,0
2017-12-11T01:26:29.119Z,0
2017-12-11T01:27:29.775Z,0
2017-12-11T01:28:30.439Z,0
2017-12-11T01:29:31.092Z,0
2017-12-11T01:30:31.751Z,0
2017-12-11T01:31:32.410Z,0
2017-12-11T01:32:33.070Z,0
2017-12-11T01:33:33.730Z,0
2017-12-11T01:34:34.389Z,0
2017-12-11T01:35:35.060Z,0
2017-12-11T01:36:35.709Z,0
2017-12-11T01:37:36.368Z,0
2017-12-11T01:38:37.028Z,0
2017-12-11T01:39:37.688Z,0
2017-12-11T01:40:38.348Z,0
2017-12-11T01:41:39.009Z,0
2017-12-11T01:42:39.667Z,0
2017-12-11T01:43:40.326Z,0
2017-12-11T01:44:40.987Z,0
2017-12-11T01:45:41.647Z,0
2017-12-11T01:46:42.307Z,0
2017-12-11T01:47:43.003Z,0
2017-12-11T01:48:43.663Z,0
2017-12-11T01:49:44.325Z,0
2017-12-11T01:50:44.985Z,0
2017-12-11T01:51:45.644Z,0
2017-12-11T01:52:46.306Z,0
2017-12-11T01:53:46.964Z,0
2017-12-11T01:54:47.624Z,0
2017-12-11T01:55:48.284Z,0
2017-12-11T01:56:48.945Z,0
2017-12-11T01:57:49.604Z,0
2017-12-11T01:58:50.264Z,0
2017-12-11T01:59:50.924Z,0
2017-12-11T02:00:51.584Z,0
2017-12-11T02:01:52.243Z,0
2017-12-11T02:02:52.902Z,0
2017-12-11T02:03:53.560Z,0
2017-12-11T02:04:54.220Z,0
2017-12-11T02:05:54.880Z,0
2017-12-11T02:06:55.540Z,0
2017-12-11T02:07:56.198Z,0
2017-12-11T02:08:56.859Z,0
2017-12-11T02:09:57.521Z,0
2017-12-11T02:10:58.177Z,0
2017-12-11T02:11:58.837Z,0
2017-12-11T02:12:59.498Z,0
2017-12-11T02:14:00.163Z,0
2017-12-11T02:15:00.819Z,0
2017-12-11T02:16:01.476Z,0
2017-12-11T02:17:02.135Z,0
2017-12-11T02:18:02.795Z,0
2017-12-11T02:19:03.494Z,0
2017-12-11T02:20:04.155Z,0
2017-12-11T02:21:04.815Z,0
2017-12-11T02:22:05.474Z,0
2017-12-11T02:23:06.134Z,0
2017-12-11T02:24:06.795Z,0
2017-12-11T02:25:07.455Z,0
2017-12-11T02:26:08.114Z,0
2017-12-11T02:27:08.775Z,0
2017-12-11T02:28:09.435Z,0
2017-12-11T02:29:10.093Z,0
2017-12-11T02:30:10.752Z,0
2017-12-11T02:31:11.412Z,0
2017-12-11T02:32:12.072Z,0
2017-12-11T02:33:12.730Z,0
2017-12-11T02:34:13.391Z,0
2017-12-11T02:35:14.050Z,0
2017-12-11T02:36:14.710Z,0
2017-12-11T02:37:15.368Z,0
2017-12-11T02:38:16.027Z,0
2017-12-11T02:39:16.688Z,0
2017-12-11T02:40:17.348Z,0
2017-12-11T02:41:18.008Z,0
2017-12-11T02:42:18.666Z,0
2017-12-11T02:43:19.324Z,0
2017-12-11T02:44:19.989Z,0
2017-12-11T02:45:20.642Z,0
2017-12-11T02:46:21.302Z,0
2017-12-11T02:47:21.962Z,0
2017-12-11T02:48:22.623Z,0
2017-12-11T02:49:23.281Z,0
2017-12-11T02:50:23.942Z,0
2017-12-11T02:51:24.601Z,0
2017-12-11T02:52:25.269Z,0
2017-12-11T02:53:25.920Z,0
2017-12-11T02:54:26.580Z,0
2017-12-11T02:55:27.239Z,0
2017-12-11T02:56:27.899Z,0
2017-12-11T02:57:28.558Z,0
2017-12-11T02:58:29.218Z,0
2017-12-11T02:59:29.913Z,0
2017-12-11T03:00:30.573Z,0
2017-12-11T03:01:31.234Z,0
2017-12-11T03:02:31.893Z,0
2017-12-11T03:03:32.554Z,0
2017-12-11T03:04:33.213Z,0
2017-12-11T03:05:33.874Z,0
2017-12-11T03:06:34.533Z,0
2017-12-11T03:07:35.193Z,0
2017-12-11T03:08:35.852Z,0
2017-12-11T03:09:36.511Z,0
2017-12-11T03:10:37.170Z,0
2017-12-11T03:11:37.832Z,0
2017-12-11T03:12:38.488Z,0
2017-12-11T03:13:39.148Z,0
2017-12-11T03:14:39.807Z,0
2017-12-11T03:15:40.466Z,0
2017-12-11T03:16:41.127Z,0
2017-12-11T03:17:41.785Z,0
2017-12-11T03:18:42.444Z,0
2017-12-11T03:19:43.104Z,0
2017-12-11T03:20:43.765Z,0
2017-12-11T03:21:44.423Z,0
2017-12-11T03:22:45.085Z,0
2017-12-11T03:23:45.743Z,0
2017-12-11T03:24:46.404Z,0
2017-12-11T03:25:47.062Z,0
2017-12-11T03:26:47.720Z,0
2017-12-11T03:27:48.380Z,0
2017-12-11T03:28:49.039Z,0
2017-12-11T03:29:49.697Z,0
2017-12-11T03:30:50.363Z,0
2017-12-11T03:31:51.017Z,0
2017-12-11T03:32:51.678Z,0
2017-12-11T03:33:52.375Z,0
2017-12-11T03:34:53.034Z,0
2017-12-11T03:35:53.695Z,0
2017-12-11T03:36:54.355Z,0
2017-12-11T03:37:55.017Z,0
2017-12-11T03:38:55.673Z,0
2017-12-11T03:39:56.333Z,0
2017-12-11T03:40:56.992Z,0
2017-12-11T03:41:57.651Z,0
2017-12-11T03:42:58.311Z,0
2017-12-11T03:43:58.971Z,0
2017-12-11T03:44:59.630Z,0
2017-12-11T03:46:00.288Z,0
2017-12-11T03:47:00.948Z,0
2017-12-11T03:48:01.608Z,0
2017-12-11T03:49:02.267Z,0
2017-12-11T03:50:02.926Z,0
2017-12-11T03:51:03.585Z,0
2017-12-11T03:52:04.245Z,0
2017-12-11T03:53:04.943Z,0
2017-12-11T03:54:05.606Z,0
2017-12-11T03:55:06.262Z,0
2017-12-11T03:56:06.921Z,0
2017-12-11T03:57:07.582Z,0
2017-12-11T03:58:08.240Z,0
2017-12-11T03:59:08.899Z,0
2017-12-11T04:00:09.557Z,0
2017-12-11T04:01:10.217Z,0
2017-12-11T04:02:10.878Z,0
2017-12-11T04:03:11.543Z,0
2017-12-11T04:04:12.196Z,0
2017-12-11T04:05:12.855Z,0
2017-12-11T04:06:13.520Z,0
2017-12-11T04:07:14.173Z,0
2017-12-11T04:08:14.834Z,0
2017-12-11T04:09:15.491Z,0
2017-12-11T04:10:16.152Z,0
2017-12-11T04:11:16.812Z,0
2017-12-11T04:12:17.470Z,0
2017-12-11T04:13:18.130Z,0
2017-12-11T04:14:18.788Z,0
2017-12-11T04:15:19.447Z,0
2017-12-11T04:16:20.106Z,0
2017-12-11T04:17:20.766Z,0
2017-12-11T04:18:21.433Z,0
2017-12-11T04:19:22.084Z,0
2017-12-11T04:20:22.794Z,0
2017-12-11T04:21:23.454Z,0
2017-12-11T04:22:24.112Z,0
2017-12-11T04:23:24.770Z,0
2017-12-11T04:24:25.429Z,0
2017-12-11T04:25:26.089Z,0
2017-12-11T04:26:26.756Z,0
2017-12-11T04:27:27.408Z,0
2017-12-11T04:28:28.099Z,0
2017-12-11T04:29:28.759Z,0
2017-12-11T04:30:29.420Z,0
2017-12-11T04:31:30.080Z,0
2017-12-11T04:32:30.739Z,0
2017-12-11T04:33:31.399Z,0
2017-12-11T04:34:32.057Z,0
2017-12-11T04:35:32.718Z,0
2017-12-11T04:36:33.377Z,0
2017-12-11T04:37:34.040Z,0
2017-12-11T04:38:34.694Z,0
2017-12-11T04:39:35.354Z,0
2017-12-11T04:40:36.014Z,0
2017-12-11T04:41:36.677Z,0
2017-12-11T04:42:37.335Z,0
2017-12-11T04:43:37.991Z,0
2017-12-11T04:44:38.651Z,0
2017-12-11T04:45:39.311Z,0
2017-12-11T04:46:39.968Z,0
2017-12-11T04:47:40.628Z,0
2017-12-11T04:48:41.291Z,0
2017-12-11T04:49:41.948Z,0
2017-12-11T04:50:42.610Z,0
2017-12-11T04:51:43.305Z,0
2017-12-11T04:52:43.965Z,0
2017-12-11T04:53:44.625Z,0
2017-12-11T04:54:45.285Z,0
2017-12-11T04:55:45.943Z,0
2017-12-11T04:56:46.603Z,0
2017-12-11T04:57:47.262Z,0
2017-12-11T04:58:47.933Z,0
2017-12-11T04:59:48.581Z,0
2017-12-11T05:00:49.240Z,0
2017-12-11T05:01:49.900Z,0
2017-12-11T05:02:50.559Z,0
2017-12-11T05:03:51.220Z,0
2017-12-11T05:04:51.878Z,0
2017-12-11T05:05:52.537Z,0
2017-12-11T05:06:53.195Z,0
2017-12-11T05:07:53.858Z,0
2017-12-11T05:08:54.515Z,0
2017-12-11T05:09:55.176Z,0
2017-12-11T05:10:55.833Z,0
2017-12-11T05:11:56.492Z,0
2017-12-11T05:12:57.152Z,0
2017-12-11T05:13:57.812Z,0
2017-12-11T05:14:58.510Z,0
2017-12-11T05:15:59.171Z,0
2017-12-11T05:16:59.831Z,0
2017-12-11T05:18:00.493Z,0
2017-12-11T05:19:01.190Z,0
2017-12-11T05:20:01.851Z,0
2017-12-11T05:21:02.511Z,0
2017-12-11T05:22:03.173Z,0
2017-12-11T05:23:03.832Z,0
2017-12-11T05:24:04.492Z,0
2017-12-11T05:25:05.150Z,0
2017-12-11T05:26:05.857Z,0
2017-12-11T05:27:06.507Z,0
2017-12-11T05:28:07.167Z,0
2017-12-11T05:29:07.831Z,0
2017-12-11T05:30:08.527Z,0
2017-12-11T05:31:09.189Z,0
2017-12-11T05:32:09.848Z,0
2017-12-11T05:33:10.508Z,0
2017-12-11T05:34:11.169Z,0
2017-12-11T05:35:11.828Z,0
2017-12-11T05:36:12.487Z,0
2017-12-11T05:37:13.185Z,0
2017-12-11T05:38:13.846Z,0
2017-12-11T05:39:14.505Z,0
2017-12-11T05:40:15.165Z,0
2017-12-11T05:41:15.826Z,0
2017-12-11T05:42:16.485Z,0
2017-12-11T05:43:17.146Z,0
2017-12-11T05:44:17.805Z,0
2017-12-11T05:45:18.465Z,0
2017-12-11T05:46:19.161Z,0
2017-12-11T05:47:19.822Z,0
2017-12-11T05:48:20.482Z,0
2017-12-11T05:49:21.146Z,0
2017-12-11T05:50:21.840Z,0
2017-12-11T05:51:22.504Z,0
2017-12-11T05:52:23.163Z,0
2017-12-11T05:53:23.823Z,0
2017-12-11T05:54:24.482Z,0
2017-12-11T05:55:25.141Z,0
2017-12-11T05:56:25.800Z,0
2017-12-11T05:57:26.459Z,0
2017-12-11T05:58:27.119Z,0
2017-12-11T05:59:27.779Z,0
2017-12-11T06:00:28.438Z,0
2017-12-11T06:01:29.096Z,0
2017-12-11T06:02:29.755Z,0
2017-12-11T06:03:30.415Z,0
2017-12-11T06:04:31.073Z,0
2017-12-11T06:05:31.731Z,0
2017-12-11T06:06:32.391Z,0
2017-12-11T06:07:33.049Z,0
2017-12-11T06:08:33.746Z,0
2017-12-11T06:09:34.407Z,0
2017-12-11T06:10:35.066Z,0
2017-12-11T06:11:35.727Z,0
2017-12-11T06:12:36.387Z,0
2017-12-11T06:13:37.084Z,0
2017-12-11T06:14:37.744Z,0
2017-12-11T06:15:38.403Z,0
2017-12-11T06:16:39.065Z,0
2017-12-11T06:17:39.725Z,0
2017-12-11T06:18:40.384Z,0
2017-12-11T06:19:41.043Z,0
2017-12-11T06:20:41.702Z,0
2017-12-11T06:21:42.360Z,0
2017-12-11T06:22:43.022Z,0
2017-12-11T06:23:43.680Z,0
2017-12-11T06:24:44.339Z,0
2017-12-11T06:25:44.998Z,0
2017-12-11T06:26:45.658Z,0
2017-12-11T06:27:46.317Z,0
2017-12-11T06:28:46.976Z,0
2017-12-11T06:29:47.637Z,0
2017-12-11T06:30:48.295Z,0
2017-12-11T06:31:48.954Z,0
2017-12-11T06:32:49.613Z,0
2017-12-11T06:33:50.272Z,0
2017-12-11T06:34:50.932Z,0
2017-12-11T06:35:51.589Z,0
2017-12-11T06:36:52.249Z,0
2017-12-11T06:37:52.908Z,0
2017-12-11T06:38:53.604Z,0
2017-12-11T06:39:54.264Z,0
2017-12-11T06:40:54.925Z,0
2017-12-11T06:41:55.584Z,0
2017-12-11T06:42:56.244Z,0
2017-12-11T06:43:56.903Z,0
2017-12-11T06:44:57.562Z,0
2017-12-11T06:45:58.222Z,0
2017-12-11T06:46:58.880Z,0
2017-12-11T06:47:59.539Z,0
2017-12-11T06:49:00.198Z,0
2017-12-11T06:50:00.857Z,0
2017-12-11T06:51:01.517Z,0
2017-12-11T06:52:02.175Z,0
2017-12-11T06:53:02.833Z,0
2017-12-11T06:54:03.493Z,0
2017-12-11T06:55:04.152Z,0
2017-12-11T06:56:04.811Z,0
2017-12-11T06:57:05.472Z,0
2017-12-11T06:58:06.131Z,0
2017-12-11T06:59:06.788Z,0
2017-12-11T07:00:07.447Z,0
2017-12-11T07:01:08.107Z,0
2017-12-11T07:02:08.804Z,0
2017-12-11T07:03:09.464Z,0
2017-12-11T07:04:10.126Z,0
2017-12-11T07:05:10.786Z,0
2017-12-11T07:06:11.482Z,0
2017-12-11T07:07:12.141Z,0
2017-12-11T07:08:12.801Z,0
2017-12-11T07:09:13.461Z,0
2017-12-11T07:10:14.124Z,0
2017-12-11T07:11:14.784Z,0
2017-12-11T07:12:15.444Z,0
2017-12-11T07:13:16.105Z,0
2017-12-11T07:14:16.768Z,0
2017-12-11T07:15:17.428Z,0
2017-12-11T07:16:18.090Z,0
2017-12-11T07:17:18.752Z,0
2017-12-11T07:18:19.413Z,0
2017-12-11T07:19:20.073Z,0
2017-12-11T07:20:20.732Z,5
2017-12-11T07:21:21.393Z,0
2017-12-11T07:22:22.054Z,0
2017-12-11T07:23:22.715Z,0
2017-12-11T07:24:23.413Z,5
2017-12-11T07:25:24.073Z,5
2017-12-11T07:26:24.733Z,5
2017-12-11T07:27:25.394Z,5
2017-12-11T07:28:26.055Z,5
2017-12-11T07:29:26.719Z,5
2017-12-11T07:30:27.381Z,11
2017-12-11T07:31:28.042Z,11
2017-12-11T07:32:28.704Z,11
2017-12-11T07:33:29.369Z,11
2017-12-11T07:34:30.029Z,11
2017-12-11T07:35:30.694Z,11
2017-12-11T07:36:31.389Z,11
2017-12-11T07:37:32.087Z,11
2017-12-11T07:38:32.749Z,11
2017-12-11T07:39:33.410Z,11
2017-12-11T07:40:34.072Z,11
2017-12-11T07:41:34.735Z,11
2017-12-11T07:42:35.398Z,11
2017-12-11T07:43:36.059Z,11
2017-12-11T07:44:36.720Z,11
2017-12-11T07:45:37.381Z,11
2017-12-11T07:46:38.044Z,11
2017-12-11T07:47:38.704Z,11
2017-12-11T07:48:39.365Z,11
2017-12-11T07:49:40.030Z,11
2017-12-11T07:50:40.689Z,11
2017-12-11T07:51:41.353Z,11
2017-12-11T07:52:42.054Z,11
2017-12-11T07:53:42.754Z,11
2017-12-11T07:54:43.419Z,11
2017-12-11T07:55:44.083Z,11
2017-12-11T07:56:44.745Z,11
2017-12-11T07:57:45.407Z,11
2017-12-11T07:58:46.070Z,11
2017-12-11T07:59:46.733Z,11
2017-12-11T08:00:47.396Z,11
2017-12-11T08:01:48.059Z,11
2017-12-11T08:02:48.721Z,11
2017-12-11T08:03:49.382Z,11
2017-12-11T08:04:50.044Z,11
2017-12-11T08:05:50.708Z,11
2017-12-11T08:06:51.372Z,11
2017-12-11T08:07:52.086Z,11
2017-12-11T08:08:52.751Z,11
2017-12-11T08:09:53.412Z,11
2017-12-11T08:10:54.076Z,11
2017-12-11T08:11:54.738Z,11
2017-12-11T08:12:55.399Z,16
2017-12-11T08:13:56.061Z,16
2017-12-11T08:14:56.723Z,16
2017-12-11T08:15:57.385Z,16
2017-12-11T08:16:58.051Z,16
2017-12-11T08:17:58.715Z,16
2017-12-11T08:18:59.377Z,16
2017-12-11T08:20:00.039Z,16
2017-12-11T08:21:00.702Z,16
2017-12-11T08:22:01.401Z,16
2017-12-11T08:23:02.062Z,16
2017-12-11T08:24:02.726Z,16
2017-12-11T08:25:03.388Z,16
2017-12-11T08:26:04.052Z,16
2017-12-11T08:27:04.717Z,16
2017-12-11T08:28:05.415Z,16
2017-12-11T08:29:06.076Z,16
2017-12-11T08:30:06.739Z,16
2017-12-11T08:31:07.401Z,16
2017-12-11T08:32:08.062Z,16
2017-12-11T08:33:08.725Z,16
2017-12-11T08:34:09.390Z,16
2017-12-11T08:35:10.053Z,16
2017-12-11T08:36:10.717Z,16
2017-12-11T08:37:11.380Z,16
2017-12-11T08:38:12.043Z,16
2017-12-11T08:39:12.706Z,16
2017-12-11T08:40:13.369Z,16
2017-12-11T08:41:14.034Z,16
2017-12-11T08:42:14.696Z,16
2017-12-11T08:43:15.359Z,16
2017-12-11T08:44:16.112Z,16
2017-12-11T08:45:16.749Z,16
2017-12-11T08:46:17.413Z,16
2017-12-11T08:47:18.077Z,16
2017-12-11T08:48:18.739Z,16
2017-12-11T08:49:19.401Z,22
2017-12-11T08:50:20.063Z,22
2017-12-11T08:51:20.728Z,22
2017-12-11T08:52:21.389Z,22
2017-12-11T08:53:22.051Z,22
2017-12-11T08:54:22.715Z,22
2017-12-11T08:55:23.379Z,22
2017-12-11T08:56:24.042Z,22
2017-12-11T08:57:24.704Z,22
2017-12-11T08:58:25.367Z,22
2017-12-11T08:59:26.031Z,28
2017-12-11T09:00:26.695Z,28
2017-12-11T09:01:27.359Z,28
2017-12-11T09:02:28.020Z,28
2017-12-11T09:03:28.682Z,28
2017-12-11T09:04:29.345Z,28
2017-12-11T09:05:30.010Z,28
2017-12-11T09:06:30.670Z,28
2017-12-11T09:07:31.333Z,28
2017-12-11T09:08:31.998Z,28
2017-12-11T09:09:32.662Z,28
2017-12-11T09:10:33.326Z,28
2017-12-11T09:11:33.990Z,33
2017-12-11T09:12:34.654Z,33
2017-12-11T09:13:35.319Z,33
2017-12-11T09:14:35.984Z,33
2017-12-11T09:15:36.647Z,33
2017-12-11T09:16:37.310Z,33
2017-12-11T09:17:37.973Z,28
2017-12-11T09:18:38.637Z,33
2017-12-11T09:19:39.303Z,33
2017-12-11T09:20:39.968Z,33
2017-12-11T09:21:40.649Z,33
2017-12-11T09:22:41.336Z,33
2017-12-11T09:23:41.999Z,33
2017-12-11T09:24:42.666Z,33
2017-12-11T09:25:43.329Z,33
2017-12-11T09:26:43.994Z,33
2017-12-11T09:27:44.658Z,33
2017-12-11T09:28:45.321Z,28
2017-12-11T09:29:45.985Z,28
2017-12-11T09:30:46.647Z,28
2017-12-11T09:31:47.311Z,28
2017-12-11T09:32:47.978Z,28
2017-12-11T09:33:48.642Z,28
2017-12-11T09:34:49.307Z,28
2017-12-11T09:35:49.968Z,28
2017-12-11T09:36:50.631Z,28
2017-12-11T09:37:51.296Z,28
2017-12-11T09:38:51.965Z,28
2017-12-11T09:39:52.626Z,28
2017-12-11T09:40:53.290Z,28
2017-12-11T09:41:53.953Z,28
2017-12-11T09:42:54.616Z,28
2017-12-11T09:43:55.280Z,28
2017-12-11T09:44:55.945Z,28
2017-12-11T09:45:56.608Z,28
2017-12-11T09:46:57.270Z,28
2017-12-11T09:47:57.934Z,28
2017-12-11T09:48:58.599Z,28
2017-12-11T09:49:59.264Z,28
2017-12-11T09:50:59.927Z,28
2017-12-11T09:52:00.590Z,22
2017-12-11T09:53:01.253Z,22
2017-12-11T09:54:01.916Z,22
2017-12-11T09:55:02.578Z,22
2017-12-11T09:56:03.241Z,22
2017-12-11T09:57:03.905Z,22
2017-12-11T09:58:04.571Z,22
2017-12-11T09:59:05.235Z,22
2017-12-11T10:00:05.898Z,22
2017-12-11T10:01:06.562Z,22
2017-12-11T10:02:07.228Z,22
2017-12-11T10:03:07.892Z,22
2017-12-11T10:04:08.555Z,22
2017-12-11T10:05:09.219Z,22
2017-12-11T10:06:09.883Z,22
2017-12-11T10:07:10.583Z,22
2017-12-11T10:08:11.248Z,22
2017-12-11T10:09:11.913Z,22
2017-12-11T10:10:12.578Z,22
2017-12-11T10:11:13.244Z,28
2017-12-11T10:12:13.907Z,28
2017-12-11T10:13:14.570Z,28
2017-12-11T10:14:15.234Z,28
2017-12-11T10:15:15.903Z,28
2017-12-11T10:16:16.620Z,33
2017-12-11T10:17:17.230Z,33
2017-12-11T10:18:17.894Z,33
2017-12-11T10:19:18.561Z,33
2017-12-11T10:20:19.228Z,33
2017-12-11T10:21:19.892Z,33
2017-12-11T10:22:20.556Z,33
2017-12-11T10:23:21.221Z,33
2017-12-11T10:24:21.887Z,33
2017-12-11T10:25:22.551Z,33
2017-12-11T10:26:23.216Z,33
2017-12-11T10:27:23.880Z,33
2017-12-11T10:28:24.547Z,33
2017-12-11T10:29:25.266Z,33
2017-12-11T10:30:25.964Z,39
2017-12-11T10:31:26.631Z,39
2017-12-11T10:32:27.298Z,39
2017-12-11T10:33:27.961Z,39
2017-12-11T10:34:28.627Z,39
2017-12-11T10:35:29.327Z,39
2017-12-11T10:36:29.993Z,39
2017-12-11T10:37:30.695Z,39
2017-12-11T10:38:31.362Z,39
2017-12-11T10:39:32.029Z,33
2017-12-11T10:40:32.693Z,33
2017-12-11T10:41:33.359Z,33
2017-12-11T10:42:34.025Z,33
2017-12-11T10:43:34.689Z,39
2017-12-11T10:44:35.354Z,39
2017-12-11T10:45:36.018Z,45
2017-12-11T10:46:36.686Z,45
2017-12-11T10:47:37.352Z,45
2017-12-11T10:48:38.017Z,45
2017-12-11T10:49:38.683Z,45
2017-12-11T10:50:39.349Z,45
2017-12-11T10:51:40.014Z,45
2017-12-11T10:52:40.678Z,45
2017-12-11T10:53:41.345Z,45
2017-12-11T10:54:42.012Z,45
2017-12-11T10:55:42.677Z,50
2017-12-11T10:56:43.343Z,50
2017-12-11T10:57:44.009Z,50
2017-12-11T10:58:44.675Z,50
2017-12-11T10:59:45.339Z,50
2017-12-11T11:00:46.004Z,50
2017-12-11T11:01:46.669Z,50
2017-12-11T11:02:47.337Z,56
2017-12-11T11:03:48.001Z,56
2017-12-11T11:04:48.667Z,56
2017-12-11T11:05:49.334Z,56
2017-12-11T11:06:49.999Z,56
2017-12-11T11:07:50.664Z,56
2017-12-11T11:08:51.329Z,61
2017-12-11T11:09:51.998Z,61
2017-12-11T11:10:52.665Z,61
2017-12-11T11:11:53.330Z,61
2017-12-11T11:12:53.995Z,61
2017-12-11T11:13:54.660Z,67
2017-12-11T11:14:55.336Z,67
2017-12-11T11:15:56.027Z,73
2017-12-11T11:16:56.692Z,73
2017-12-11T11:17:57.356Z,73
2017-12-11T11:18:58.022Z,73
2017-12-11T11:19:58.689Z,73
2017-12-11T11:20:59.356Z,73
2017-12-11T11:22:00.021Z,73
2017-12-11T11:23:00.686Z,73
2017-12-11T11:24:01.353Z,73
2017-12-11T11:25:02.019Z,73
2017-12-11T11:26:02.684Z,67
2017-12-11T11:27:03.349Z,67
2017-12-11T11:28:04.015Z,67
2017-12-11T11:29:04.682Z,73
2017-12-11T11:30:05.348Z,73
2017-12-11T11:31:06.015Z,73
2017-12-11T11:32:06.681Z,73
2017-12-11T11:33:07.350Z,73
2017-12-11T11:34:08.015Z,73
2017-12-11T11:35:08.683Z,73
2017-12-11T11:36:09.349Z,73
2017-12-11T11:37:10.015Z,73
2017-12-11T11:38:10.682Z,73
2017-12-11T11:39:11.347Z,73
2017-12-11T11:40:12.012Z,73
2017-12-11T11:41:12.676Z,73
2017-12-11T11:42:13.343Z,73
2017-12-11T11:43:14.010Z,67
2017-12-11T11:44:14.676Z,67
2017-12-11T11:45:15.342Z,67
2017-12-11T11:46:16.009Z,67
2017-12-11T11:47:16.675Z,61
2017-12-11T11:48:17.339Z,56
2017-12-11T11:49:18.004Z,56
2017-12-11T11:50:18.675Z,61
2017-12-11T11:51:19.337Z,61
2017-12-11T11:52:20.007Z,61
2017-12-11T11:53:20.673Z,61
2017-12-11T11:54:21.340Z,61
2017-12-11T11:55:22.005Z,61
2017-12-11T11:56:22.671Z,61
2017-12-11T11:57:23.335Z,67
2017-12-11T11:58:24.001Z,67
2017-12-11T11:59:24.668Z,61
2017-12-11T12:00:25.334Z,61
2017-12-11T12:01:26.000Z,61
2017-12-11T12:02:26.666Z,61
2017-12-11T12:03:27.331Z,61
2017-12-11T12:04:27.997Z,56
2017-12-11T12:05:28.660Z,56
2017-12-11T12:06:29.325Z,50
2017-12-11T12:07:29.991Z,50
2017-12-11T12:08:30.658Z,50
2017-12-11T12:09:31.324Z,50
2017-12-11T12:10:31.989Z,50
2017-12-11T12:11:32.655Z,50
2017-12-11T12:12:33.358Z,50
2017-12-11T12:13:34.025Z,50
2017-12-11T12:14:34.689Z,50
2017-12-11T12:15:35.354Z,50
2017-12-11T12:16:36.020Z,50
2017-12-11T12:17:36.687Z,50
2017-12-11T12:18:37.353Z,50
2017-12-11T12:19:38.019Z,50
2017-12-11T12:20:38.684Z,50
2017-12-11T12:21:39.351Z,50
2017-12-11T12:22:40.017Z,50
2017-12-11T12:23:40.684Z,50
2017-12-11T12:24:41.351Z,45
2017-12-11T12:25:42.017Z,45
2017-12-11T12:26:42.683Z,39
2017-12-11T12:27:43.347Z,39
2017-12-11T12:28:44.014Z,39
2017-12-11T12:29:44.680Z,45
2017-12-11T12:30:45.347Z,50
2017-12-11T12:31:46.011Z,50
2017-12-11T12:32:46.676Z,50
2017-12-11T12:33:47.340Z,50
2017-12-11T12:34:48.006Z,50
2017-12-11T12:35:48.673Z,50
2017-12-11T12:36:49.338Z,50
2017-12-11T12:37:50.006Z,45
2017-12-11T12:38:50.673Z,45
2017-12-11T12:39:51.338Z,45
2017-12-11T12:40:52.004Z,39
2017-12-11T12:41:52.674Z,39
2017-12-11T12:42:53.338Z,39
2017-12-11T12:43:54.003Z,45
2017-12-11T12:44:54.669Z,45
2017-12-11T12:45:55.335Z,45
2017-12-11T12:46:56.002Z,45
2017-12-11T12:47:56.667Z,45
2017-12-11T12:48:57.332Z,45
2017-12-11T12:49:57.996Z,45
2017-12-11T12:50:58.699Z,50
2017-12-11T12:51:59.367Z,50
2017-12-11T12:53:00.034Z,50
2017-12-11T12:54:00.701Z,45
2017-12-11T12:55:01.367Z,45
2017-12-11T12:56:02.039Z,45
2017-12-11T12:57:02.740Z,45
2017-12-11T12:58:03.405Z,45
2017-12-11T12:59:04.071Z,45
2017-12-11T13:00:04.738Z,45
2017-12-11T13:01:05.406Z,39
2017-12-11T13:02:06.072Z,39
2017-12-11T13:03:06.738Z,39
2017-12-11T13:04:07.404Z,33
2017-12-11T13:05:08.070Z,33
2017-12-11T13:06:08.785Z,33
2017-12-11T13:07:09.453Z,33
2017-12-11T13:08:10.121Z,33
2017-12-11T13:09:10.784Z,28
2017-12-11T13:10:11.449Z,28
2017-12-11T13:11:12.114Z,28
2017-12-11T13:12:12.778Z,28
2017-12-11T13:13:13.444Z,28
2017-12-11T13:14:14.116Z,33
2017-12-11T13:15:14.775Z,33
2017-12-11T13:16:15.442Z,28
2017-12-11T13:17:16.107Z,28
2017-12-11T13:18:16.771Z,22
2017-12-11T13:19:17.435Z,22
2017-12-11T13:20:18.102Z,22
2017-12-11T13:21:18.767Z,22
2017-12-11T13:22:19.431Z,22
2017-12-11T13:23:20.094Z,22
2017-12-11T13:24:20.760Z,22
2017-12-11T13:25:21.424Z,22
2017-12-11T13:26:22.091Z,22
2017-12-11T13:27:22.757Z,22
2017-12-11T13:28:23.421Z,22
2017-12-11T13:29:24.087Z,22
2017-12-11T13:30:24.788Z,16
2017-12-11T13:31:25.453Z,16
2017-12-11T13:32:26.118Z,16
2017-12-11T13:33:26.787Z,16
2017-12-11T13:34:27.448Z,16
2017-12-11T13:35:28.113Z,16
2017-12-11T13:36:28.778Z,16
2017-12-11T13:37:29.444Z,16
2017-12-11T13:38:30.110Z,16
2017-12-11T13:39:30.776Z,16
2017-12-11T13:40:31.439Z,22
2017-12-11T13:41:32.104Z,22
2017-12-11T13:42:32.768Z,16
2017-12-11T13:43:33.435Z,16
2017-12-11T13:44:34.099Z,16
2017-12-11T13:45:34.763Z,16
2017-12-11T13:46:35.427Z,16
2017-12-11T13:47:36.092Z,16
2017-12-11T13:48:36.759Z,11
2017-12-11T13:49:37.427Z,11
2017-12-11T13:50:38.089Z,11
2017-12-11T13:51:38.754Z,11
2017-12-11T13:52:39.419Z,11
2017-12-11T13:53:40.085Z,11
2017-12-11T13:54:40.748Z,11
2017-12-11T13:55:41.412Z,11
2017-12-11T13:56:42.077Z,11
2017-12-11T13:57:42.742Z,11
2017-12-11T13:58:43.406Z,11
2017-12-11T13:59:44.073Z,11
2017-12-11T14:00:44.743Z,11
2017-12-11T14:01:45.407Z,11
2017-12-11T14:02:46.070Z,11
2017-12-11T14:03:46.734Z,11
2017-12-11T14:04:47.400Z,11
2017-12-11T14:05:48.063Z,11
2017-12-11T14:06:48.725Z,11
2017-12-11T14:07:49.426Z,11
2017-12-11T14:08:50.053Z,11
2017-12-11T14:09:50.719Z,11
2017-12-11T14:10:51.383Z,5
2017-12-11T14:11:52.085Z,5
2017-12-11T14:12:52.749Z,5
2017-12-11T14:13:53.414Z,5
2017-12-11T14:14:54.077Z,5
2017-12-11T14:15:54.739Z,5
2017-12-11T14:16:55.401Z,5
2017-12-11T14:17:56.064Z,5
2017-12-11T14:18:56.723Z,5
2017-12-11T14:19:57.386Z,5
2017-12-11T14:20:58.049Z,5
2017-12-11T14:21:58.713Z,5
2017-12-11T14:22:59.380Z,5
2017-12-11T14:24:00.042Z,5
2017-12-11T14:25:00.704Z,5
2017-12-11T14:26:01.403Z,5
2017-12-11T14:27:02.068Z,5
2017-12-11T14:28:02.730Z,5
2017-12-11T14:29:03.393Z,5
2017-12-11T14:30:04.056Z,5
2017-12-11T14:31:04.720Z,5
2017-12-11T14:32:05.383Z,5
2017-12-11T14:33:06.044Z,5
2017-12-11T14:34:06.707Z,5
2017-12-11T14:35:07.371Z,5
2017-12-11T14:36:08.035Z,5
2017-12-11T14:37:08.698Z,0
2017-12-11T14:38:09.364Z,0
2017-12-11T14:39:10.029Z,0
2017-12-11T14:40:10.691Z,0
2017-12-11T14:41:11.354Z,0
2017-12-11T14:42:12.017Z,0